Terminal Aerodrome Forecast
Issued by NWS

Current Version | Previous Version | Graphics & Text | Print | Product List | Glossary On
Versions: 1 2 3 4 5 6 7 8 9 10 11 12 13 14 15 16 17 18 19 20 21 22 23 24 25 26 27 28
703
FTUS41 KILN 280855 AAA
TAFLUK
TAF AMD
KLUK 280855Z 2809/2906 19004KT P6SM OVC200
      TEMPO 2810/2813 BKN025
     FM281300 18006KT P6SM BKN035
     FM282200 24010KT P6SM VCTS BKN040CB
     FM290200 26007KT P6SM BKN100=

USA.gov is the U.S. government's official web portal to all federal, state and local government web resources and services.